sensor_id;sensor_type;location;lat;lon;timestamp;pressure;altitude;pressure_sealevel;temperature;humidity
64632;BME280;58358;50.936;0.246;2023-08-06T00:02:04;100517.24;;;9.84;100.00
64632;BME280;58358;50.936;0.246;2023-08-06T00:04:30;100524.18;;;10.05;100.00
64632;BME280;58358;50.936;0.246;2023-08-06T00:06:55;100523.82;;;10.09;100.00
64632;BME280;58358;50.936;0.246;2023-08-06T00:09:21;100527.20;;;10.56;100.00
64632;BME280;58358;50.936;0.246;2023-08-06T00:11:46;100532.08;;;9.83;100.00
64632;BME280;58358;50.936;0.246;2023-08-06T00:14:12;100530.79;;;10.03;100.00
64632;BME280;58358;50.936;0.246;2023-08-06T00:16:37;100535.31;;;9.60;100.00
64632;BME280;58358;50.936;0.246;2023-08-06T00:19:03;100534.70;;;10.06;100.00
64632;BME280;58358;50.936;0.246;2023-08-06T00:21:28;100540.39;;;9.86;100.00
64632;BME280;58358;50.936;0.246;2023-08-06T00:23:54;100544.20;;;9.58;100.00
64632;BME280;58358;50.936;0.246;2023-08-06T00:26:19;100551.18;;;9.51;100.00
64632;BME280;58358;50.936;0.246;2023-08-06T00:28:45;100561.96;;;10.23;100.00
64632;BME280;58358;50.936;0.246;2023-08-06T00:31:10;100564.32;;;9.55;100.00
64632;BME280;58358;50.936;0.246;2023-08-06T00:33:35;100570.60;;;10.16;100.00
64632;BME280;58358;50.936;0.246;2023-08-06T00:36:01;100583.41;;;9.45;100.00
64632;BME280;58358;50.936;0.246;2023-08-06T00:38:27;100581.08;;;10.32;100.00
64632;BME280;58358;50.936;0.246;2023-08-06T00:40:53;100585.16;;;9.59;100.00
64632;BME280;58358;50.936;0.246;2023-08-06T00:43:18;100591.45;;;10.76;100.00
64632;BME280;58358;50.936;0.246;2023-08-06T00:45:44;100594.19;;;10.46;100.00
64632;BME280;58358;50.936;0.246;2023-08-06T00:48:10;100593.88;;;10.08;100.00
64632;BME280;58358;50.936;0.246;2023-08-06T00:50:35;100599.56;;;10.77;100.00
64632;BME280;58358;50.936;0.246;2023-08-06T00:53:02;100600.98;;;10.14;100.00
64632;BME280;58358;50.936;0.246;2023-08-06T00:55:27;100608.40;;;9.93;100.00
64632;BME280;58358;50.936;0.246;2023-08-06T00:57:53;100613.24;;;9.98;100.00
64632;BME280;58358;50.936;0.246;2023-08-06T01:00:19;100610.20;;;9.92;100.00
64632;BME280;58358;50.936;0.246;2023-08-06T01:02:45;100618.63;;;9.93;100.00
64632;BME280;58358;50.936;0.246;2023-08-06T01:05:10;100619.26;;;10.25;100.00
64632;BME280;58358;50.936;0.246;2023-08-06T01:07:43;100626.89;;;10.17;100.00
64632;BME280;58358;50.936;0.246;2023-08-06T01:10:18;100620.49;;;10.34;100.00
64632;BME280;58358;50.936;0.246;2023-08-06T01:12:34;100632.38;;;10.33;100.00
64632;BME280;58358;50.936;0.246;2023-08-06T01:15:00;100632.79;;;10.08;100.00
64632;BME280;58358;50.936;0.246;2023-08-06T01:17:19;100635.28;;;9.97;100.00
64632;BME280;58358;50.936;0.246;2023-08-06T01:19:45;100639.36;;;9.48;100.00
64632;BME280;58358;50.936;0.246;2023-08-06T01:22:10;100645.24;;;10.20;100.00
64632;BME280;58358;50.936;0.246;2023-08-06T01:24:36;100658.23;;;9.65;100.00
64632;BME280;58358;50.936;0.246;2023-08-06T01:27:08;100656.48;;;9.83;100.00
64632;BME280;58358;50.936;0.246;2023-08-06T01:29:31;100660.10;;;9.65;100.00
64632;BME280;58358;50.936;0.246;2023-08-06T01:31:54;100659.61;;;9.94;100.00
64632;BME280;58358;50.936;0.246;2023-08-06T01:34:22;100669.83;;;10.13;100.00
64632;BME280;58358;50.936;0.246;2023-08-06T01:36:45;100668.35;;;9.30;100.00
64632;BME280;58358;50.936;0.246;2023-08-06T01:39:10;100668.91;;;9.52;100.00
64632;BME280;58358;50.936;0.246;2023-08-06T01:41:36;100669.18;;;10.21;100.00
64632;BME280;58358;50.936;0.246;2023-08-06T01:44:02;100676.13;;;10.41;100.00
64632;BME280;58358;50.936;0.246;2023-08-06T01:46:27;100682.23;;;10.53;100.00
64632;BME280;58358;50.936;0.246;2023-08-06T01:48:53;100686.49;;;9.83;100.00
64632;BME280;58358;50.936;0.246;2023-08-06T01:51:19;100690.25;;;10.08;100.00
64632;BME280;58358;50.936;0.246;2023-08-06T01:53:45;100691.45;;;9.72;100.00
64632;BME280;58358;50.936;0.246;2023-08-06T01:56:10;100705.48;;;9.93;100.00
64632;BME280;58358;50.936;0.246;2023-08-06T01:58:36;100692.40;;;9.33;100.00
64632;BME280;58358;50.936;0.246;2023-08-06T02:01:02;100697.54;;;10.57;100.00
64632;BME280;58358;50.936;0.246;2023-08-06T02:03:27;100696.97;;;9.84;100.00
64632;BME280;58358;50.936;0.246;2023-08-06T02:05:53;100690.89;;;9.03;100.00
64632;BME280;58358;50.936;0.246;2023-08-06T02:08:19;100700.48;;;8.88;100.00
64632;BME280;58358;50.936;0.246;2023-08-06T02:10:45;100704.10;;;9.36;100.00
64632;BME280;58358;50.936;0.246;2023-08-06T02:13:11;100705.35;;;9.56;100.00
64632;BME280;58358;50.936;0.246;2023-08-06T02:15:42;100705.70;;;9.29;100.00
64632;BME280;58358;50.936;0.246;2023-08-06T02:18:02;100702.30;;;9.89;100.00
64632;BME280;58358;50.936;0.246;2023-08-06T02:20:28;100711.68;;;8.55;100.00
64632;BME280;58358;50.936;0.246;2023-08-06T02:22:54;100711.62;;;9.37;100.00
64632;BME280;58358;50.936;0.246;2023-08-06T02:25:19;100704.53;;;9.01;100.00
64632;BME280;58358;50.936;0.246;2023-08-06T02:27:45;100715.31;;;9.33;100.00
64632;BME280;58358;50.936;0.246;2023-08-06T02:30:11;100710.76;;;9.03;100.00
64632;BME280;58358;50.936;0.246;2023-08-06T02:32:37;100716.50;;;8.71;100.00
64632;BME280;58358;50.936;0.246;2023-08-06T02:35:03;100718.47;;;9.10;100.00
64632;BME280;58358;50.936;0.246;2023-08-06T02:37:28;100717.97;;;9.07;100.00
64632;BME280;58358;50.936;0.246;2023-08-06T02:39:54;100721.64;;;8.83;100.00
64632;BME280;58358;50.936;0.246;2023-08-06T02:42:20;100728.15;;;8.98;100.00
64632;BME280;58358;50.936;0.246;2023-08-06T02:44:45;100729.89;;;8.72;100.00
64632;BME280;58358;50.936;0.246;2023-08-06T02:47:11;100729.86;;;8.58;100.00
64632;BME280;58358;50.936;0.246;2023-08-06T02:49:37;100733.02;;;8.40;100.00
64632;BME280;58358;50.936;0.246;2023-08-06T02:52:03;100732.03;;;8.76;100.00
64632;BME280;58358;50.936;0.246;2023-08-06T02:54:28;100730.52;;;9.27;100.00
64632;BME280;58358;50.936;0.246;2023-08-06T02:56:54;100735.42;;;9.16;100.00
64632;BME280;58358;50.936;0.246;2023-08-06T02:59:20;100734.34;;;9.02;100.00
64632;BME280;58358;50.936;0.246;2023-08-06T03:01:46;100743.52;;;8.30;100.00
64632;BME280;58358;50.936;0.246;2023-08-06T03:04:11;100739.15;;;8.44;100.00
64632;BME280;58358;50.936;0.246;2023-08-06T03:06:37;100739.36;;;8.54;100.00
64632;BME280;58358;50.936;0.246;2023-08-06T03:09:03;100739.84;;;8.52;100.00
64632;BME280;58358;50.936;0.246;2023-08-06T03:11:29;100737.34;;;8.43;100.00
64632;BME280;58358;50.936;0.246;2023-08-06T03:13:55;100739.15;;;8.92;100.00
64632;BME280;58358;50.936;0.246;2023-08-06T03:16:20;100736.31;;;7.83;100.00
64632;BME280;58358;50.936;0.246;2023-08-06T03:18:46;100736.37;;;7.92;100.00
64632;BME280;58358;50.936;0.246;2023-08-06T03:21:12;100740.73;;;8.13;100.00
64632;BME280;58358;50.936;0.246;2023-08-06T03:23:37;100741.66;;;8.22;100.00
64632;BME280;58358;50.936;0.246;2023-08-06T03:26:03;100743.99;;;7.99;100.00
64632;BME280;58358;50.936;0.246;2023-08-06T03:28:29;100740.95;;;8.09;100.00
64632;BME280;58358;50.936;0.246;2023-08-06T03:31:01;100745.48;;;8.49;100.00
64632;BME280;58358;50.936;0.246;2023-08-06T03:33:21;100746.01;;;8.17;100.00
64632;BME280;58358;50.936;0.246;2023-08-06T03:35:46;100747.24;;;7.92;100.00
64632;BME280;58358;50.936;0.246;2023-08-06T03:38:12;100753.85;;;8.28;100.00
64632;BME280;58358;50.936;0.246;2023-08-06T03:40:38;100760.69;;;7.81;100.00
64632;BME280;58358;50.936;0.246;2023-08-06T03:43:03;100747.55;;;8.33;100.00
64632;BME280;58358;50.936;0.246;2023-08-06T03:45:29;100752.81;;;8.70;100.00
64632;BME280;58358;50.936;0.246;2023-08-06T03:47:54;100749.93;;;8.88;100.00
64632;BME280;58358;50.936;0.246;2023-08-06T03:50:20;100754.46;;;8.50;100.00
64632;BME280;58358;50.936;0.246;2023-08-06T03:52:46;100756.49;;;8.53;100.00
64632;BME280;58358;50.936;0.246;2023-08-06T03:55:11;100760.53;;;8.14;100.00
64632;BME280;58358;50.936;0.246;2023-08-06T03:57:37;100767.31;;;8.85;100.00
64632;BME280;58358;50.936;0.246;2023-08-06T04:00:03;100772.58;;;9.07;100.00
64632;BME280;58358;50.936;0.246;2023-08-06T04:02:29;100775.47;;;9.06;100.00
64632;BME280;58358;50.936;0.246;2023-08-06T04:04:55;100773.87;;;8.74;100.00
64632;BME280;58358;50.936;0.246;2023-08-06T04:07:20;100777.97;;;8.39;100.00
64632;BME280;58358;50.936;0.246;2023-08-06T04:09:52;100781.77;;;8.47;100.00
64632;BME280;58358;50.936;0.246;2023-08-06T04:12:12;100782.13;;;8.51;100.00
64632;BME280;58358;50.936;0.246;2023-08-06T04:14:38;100788.12;;;8.47;100.00
64632;BME280;58358;50.936;0.246;2023-08-06T04:17:04;100795.09;;;8.26;100.00
64632;BME280;58358;50.936;0.246;2023-08-06T04:19:29;100791.94;;;8.60;100.00
64632;BME280;58358;50.936;0.246;2023-08-06T04:21:55;100797.09;;;8.74;100.00
64632;BME280;58358;50.936;0.246;2023-08-06T04:24:21;100797.90;;;8.92;100.00
64632;BME280;58358;50.936;0.246;2023-08-06T04:26:46;100801.68;;;7.38;100.00
64632;BME280;58358;50.936;0.246;2023-08-06T04:29:12;100805.55;;;8.61;100.00
64632;BME280;58358;50.936;0.246;2023-08-06T04:31:38;100811.59;;;7.77;100.00
64632;BME280;58358;50.936;0.246;2023-08-06T04:34:04;100811.74;;;7.77;100.00
64632;BME280;58358;50.936;0.246;2023-08-06T04:36:29;100815.22;;;8.09;100.00
64632;BME280;58358;50.936;0.246;2023-08-06T04:38:55;100819.50;;;8.37;100.00
64632;BME280;58358;50.936;0.246;2023-08-06T04:41:21;100833.79;;;8.05;100.00
64632;BME280;58358;50.936;0.246;2023-08-06T04:43:47;100827.19;;;8.06;100.00
64632;BME280;58358;50.936;0.246;2023-08-06T04:46:13;100826.42;;;8.42;100.00
64632;BME280;58358;50.936;0.246;2023-08-06T04:48:38;100826.41;;;8.20;100.00
64632;BME280;58358;50.936;0.246;2023-08-06T04:51:04;100835.08;;;8.05;100.00
64632;BME280;58358;50.936;0.246;2023-08-06T04:53:30;100830.43;;;8.20;100.00
64632;BME280;58358;50.936;0.246;2023-08-06T04:55:56;100833.14;;;8.79;100.00
64632;BME280;58358;50.936;0.246;2023-08-06T04:58:21;100835.25;;;8.54;100.00
64632;BME280;58358;50.936;0.246;2023-08-06T05:00:47;100837.73;;;8.18;100.00
64632;BME280;58358;50.936;0.246;2023-08-06T05:03:13;100837.38;;;7.49;100.00
64632;BME280;58358;50.936;0.246;2023-08-06T05:05:40;100839.29;;;7.83;100.00
64632;BME280;58358;50.936;0.246;2023-08-06T05:08:04;100841.65;;;7.80;100.00
64632;BME280;58358;50.936;0.246;2023-08-06T05:10:30;100842.36;;;7.71;100.00
64632;BME280;58358;50.936;0.246;2023-08-06T05:12:56;100852.90;;;8.49;100.00
64632;BME280;58358;50.936;0.246;2023-08-06T05:15:22;100854.22;;;8.88;100.00
64632;BME280;58358;50.936;0.246;2023-08-06T05:17:48;100855.72;;;7.53;100.00
64632;BME280;58358;50.936;0.246;2023-08-06T05:20:13;100856.43;;;8.05;100.00
64632;BME280;58358;50.936;0.246;2023-08-06T05:22:39;100862.00;;;7.68;100.00
64632;BME280;58358;50.936;0.246;2023-08-06T05:25:06;100868.45;;;7.50;100.00
64632;BME280;58358;50.936;0.246;2023-08-06T05:27:30;100868.08;;;8.21;100.00
64632;BME280;58358;50.936;0.246;2023-08-06T05:29:56;100867.13;;;8.11;100.00
64632;BME280;58358;50.936;0.246;2023-08-06T05:32:22;100874.65;;;7.87;100.00
64632;BME280;58358;50.936;0.246;2023-08-06T05:34:48;100878.10;;;7.70;100.00
64632;BME280;58358;50.936;0.246;2023-08-06T05:37:13;100877.35;;;7.67;100.00
64632;BME280;58358;50.936;0.246;2023-08-06T05:39:39;100880.24;;;8.06;100.00
64632;BME280;58358;50.936;0.246;2023-08-06T05:42:05;100885.58;;;7.86;100.00
64632;BME280;58358;50.936;0.246;2023-08-06T05:44:30;100884.70;;;8.40;100.00
64632;BME280;58358;50.936;0.246;2023-08-06T05:46:56;100885.22;;;8.28;100.00
64632;BME280;58358;50.936;0.246;2023-08-06T05:49:22;100884.70;;;8.68;100.00
64632;BME280;58358;50.936;0.246;2023-08-06T05:51:48;100875.71;;;8.88;100.00
64632;BME280;58358;50.936;0.246;2023-08-06T05:54:14;100886.86;;;9.31;100.00
64632;BME280;58358;50.936;0.246;2023-08-06T05:56:39;100889.94;;;8.62;100.00
64632;BME280;58358;50.936;0.246;2023-08-06T05:59:05;100894.54;;;8.60;100.00
64632;BME280;58358;50.936;0.246;2023-08-06T06:01:30;100892.69;;;9.33;100.00
64632;BME280;58358;50.936;0.246;2023-08-06T06:03:56;100894.85;;;9.04;100.00
64632;BME280;58358;50.936;0.246;2023-08-06T06:06:22;100905.94;;;8.76;100.00
64632;BME280;58358;50.936;0.246;2023-08-06T06:08:48;100898.73;;;8.75;100.00
64632;BME280;58358;50.936;0.246;2023-08-06T06:11:13;100898.51;;;8.50;100.00
64632;BME280;58358;50.936;0.246;2023-08-06T06:13:39;100910.50;;;8.32;100.00
64632;BME280;58358;50.936;0.246;2023-08-06T06:16:05;100905.64;;;8.45;100.00
64632;BME280;58358;50.936;0.246;2023-08-06T06:18:31;100912.14;;;9.01;100.00
64632;BME280;58358;50.936;0.246;2023-08-06T06:20:56;100906.94;;;9.43;100.00
64632;BME280;58358;50.936;0.246;2023-08-06T06:23:22;100918.87;;;8.94;100.00
64632;BME280;58358;50.936;0.246;2023-08-06T06:25:49;100921.80;;;8.65;100.00
64632;BME280;58358;50.936;0.246;2023-08-06T06:28:14;100916.48;;;8.57;100.00
64632;BME280;58358;50.936;0.246;2023-08-06T06:30:41;100926.52;;;9.04;100.00
64632;BME280;58358;50.936;0.246;2023-08-06T06:33:05;100927.95;;;8.87;100.00
64632;BME280;58358;50.936;0.246;2023-08-06T06:35:31;100929.86;;;8.67;100.00
64632;BME280;58358;50.936;0.246;2023-08-06T06:37:57;100933.54;;;9.25;100.00
64632;BME280;58358;50.936;0.246;2023-08-06T06:40:22;100927.39;;;9.24;100.00
64632;BME280;58358;50.936;0.246;2023-08-06T06:42:48;100944.35;;;9.55;100.00
64632;BME280;58358;50.936;0.246;2023-08-06T06:45:14;100937.67;;;9.23;100.00
64632;BME280;58358;50.936;0.246;2023-08-06T06:47:39;100944.73;;;9.20;100.00
64632;BME280;58358;50.936;0.246;2023-08-06T06:50:06;100944.05;;;9.50;100.00
64632;BME280;58358;50.936;0.246;2023-08-06T06:52:31;100940.69;;;9.47;100.00
64632;BME280;58358;50.936;0.246;2023-08-06T06:54:56;100946.58;;;9.59;100.00
64632;BME280;58358;50.936;0.246;2023-08-06T06:57:22;100951.95;;;9.53;100.00
64632;BME280;58358;50.936;0.246;2023-08-06T06:59:48;100953.41;;;10.03;100.00
64632;BME280;58358;50.936;0.246;2023-08-06T07:02:13;100962.11;;;9.71;100.00
64632;BME280;58358;50.936;0.246;2023-08-06T07:04:39;100962.88;;;10.44;100.00
64632;BME280;58358;50.936;0.246;2023-08-06T07:07:05;100960.99;;;9.78;100.00
64632;BME280;58358;50.936;0.246;2023-08-06T07:09:31;100970.49;;;9.97;100.00
64632;BME280;58358;50.936;0.246;2023-08-06T07:11:56;100974.84;;;10.14;100.00
64632;BME280;58358;50.936;0.246;2023-08-06T07:14:24;100965.50;;;9.54;100.00
64632;BME280;58358;50.936;0.246;2023-08-06T07:16:47;100969.34;;;9.84;100.00
64632;BME280;58358;50.936;0.246;2023-08-06T07:19:13;100970.43;;;9.71;100.00
64632;BME280;58358;50.936;0.246;2023-08-06T07:21:39;100980.29;;;10.02;100.00
64632;BME280;58358;50.936;0.246;2023-08-06T07:24:05;100973.92;;;10.51;100.00
64632;BME280;58358;50.936;0.246;2023-08-06T07:26:31;100977.36;;;10.79;100.00
64632;BME280;58358;50.936;0.246;2023-08-06T07:28:56;100981.70;;;11.25;100.00
64632;BME280;58358;50.936;0.246;2023-08-06T07:31:22;100986.79;;;10.92;100.00
64632;BME280;58358;50.936;0.246;2023-08-06T07:33:48;100978.53;;;11.45;100.00
64632;BME280;58358;50.936;0.246;2023-08-06T07:36:14;100987.27;;;10.94;100.00
64632;BME280;58358;50.936;0.246;2023-08-06T07:38:39;100989.41;;;11.43;100.00
64632;BME280;58358;50.936;0.246;2023-08-06T07:41:05;100992.26;;;11.81;100.00
64632;BME280;58358;50.936;0.246;2023-08-06T07:43:30;100993.75;;;11.33;100.00
64632;BME280;58358;50.936;0.246;2023-08-06T07:45:58;100994.32;;;11.08;100.00
64632;BME280;58358;50.936;0.246;2023-08-06T07:48:22;100999.96;;;11.40;100.00
64632;BME280;58358;50.936;0.246;2023-08-06T07:50:51;101008.36;;;11.36;100.00
64632;BME280;58358;50.936;0.246;2023-08-06T07:53:13;101005.07;;;11.07;100.00
64632;BME280;58358;50.936;0.246;2023-08-06T07:55:39;101027.20;;;10.88;100.00
64632;BME280;58358;50.936;0.246;2023-08-06T07:58:05;101013.61;;;11.15;100.00
64632;BME280;58358;50.936;0.246;2023-08-06T08:00:30;101018.68;;;11.42;100.00
64632;BME280;58358;50.936;0.246;2023-08-06T08:02:56;101019.46;;;12.01;100.00
64632;BME280;58358;50.936;0.246;2023-08-06T08:05:22;101020.93;;;11.76;100.00
64632;BME280;58358;50.936;0.246;2023-08-06T08:07:47;101021.35;;;12.49;100.00
64632;BME280;58358;50.936;0.246;2023-08-06T08:10:13;101025.46;;;12.61;100.00
64632;BME280;58358;50.936;0.246;2023-08-06T08:12:39;101018.90;;;11.77;100.00
64632;BME280;58358;50.936;0.246;2023-08-06T08:15:05;101026.64;;;11.70;100.00
64632;BME280;58358;50.936;0.246;2023-08-06T08:17:32;101026.89;;;11.77;100.00
64632;BME280;58358;50.936;0.246;2023-08-06T08:19:56;101037.21;;;11.00;100.00
64632;BME280;58358;50.936;0.246;2023-08-06T08:22:21;101034.30;;;10.99;100.00
64632;BME280;58358;50.936;0.246;2023-08-06T08:24:47;101035.62;;;11.69;100.00
64632;BME280;58358;50.936;0.246;2023-08-06T08:27:13;101028.03;;;11.42;100.00
64632;BME280;58358;50.936;0.246;2023-08-06T08:29:39;101031.31;;;11.41;100.00
64632;BME280;58358;50.936;0.246;2023-08-06T08:32:05;101029.41;;;12.76;100.00
64632;BME280;58358;50.936;0.246;2023-08-06T08:34:30;101034.36;;;11.93;100.00
64632;BME280;58358;50.936;0.246;2023-08-06T08:36:56;101035.58;;;11.32;100.00
64632;BME280;58358;50.936;0.246;2023-08-06T08:39:21;101035.95;;;11.27;100.00
64632;BME280;58358;50.936;0.246;2023-08-06T08:41:47;101035.48;;;11.19;100.00
64632;BME280;58358;50.936;0.246;2023-08-06T08:44:14;101037.11;;;11.72;100.00
64632;BME280;58358;50.936;0.246;2023-08-06T08:46:40;101027.72;;;12.01;100.00
64632;BME280;58358;50.936;0.246;2023-08-06T08:49:04;101040.27;;;12.21;100.00
64632;BME280;58358;50.936;0.246;2023-08-06T08:51:30;101030.13;;;12.58;100.00
64632;BME280;58358;50.936;0.246;2023-08-06T08:53:56;101032.57;;;12.19;100.00
64632;BME280;58358;50.936;0.246;2023-08-06T08:56:21;101029.42;;;11.92;100.00
64632;BME280;58358;50.936;0.246;2023-08-06T08:58:47;101025.22;;;12.04;100.00
64632;BME280;58358;50.936;0.246;2023-08-06T09:01:13;101036.35;;;11.95;100.00
64632;BME280;58358;50.936;0.246;2023-08-06T09:03:39;101038.63;;;12.39;100.00
64632;BME280;58358;50.936;0.246;2023-08-06T09:06:04;101035.23;;;12.11;100.00
64632;BME280;58358;50.936;0.246;2023-08-06T09:08:35;101034.20;;;12.07;100.00
64632;BME280;58358;50.936;0.246;2023-08-06T09:10:56;101042.06;;;12.38;100.00
64632;BME280;58358;50.936;0.246;2023-08-06T09:13:21;101038.15;;;12.72;100.00
64632;BME280;58358;50.936;0.246;2023-08-06T09:15:46;101039.76;;;12.43;100.00
64632;BME280;58358;50.936;0.246;2023-08-06T09:18:13;101041.62;;;12.77;100.00
64632;BME280;58358;50.936;0.246;2023-08-06T09:20:39;101050.19;;;12.52;100.00
64632;BME280;58358;50.936;0.246;2023-08-06T09:23:07;101050.34;;;12.74;100.00
64632;BME280;58358;50.936;0.246;2023-08-06T09:25:29;101048.53;;;13.18;100.00
64632;BME280;58358;50.936;0.246;2023-08-06T09:27:55;101052.72;;;13.00;100.00
64632;BME280;58358;50.936;0.246;2023-08-06T09:30:29;101062.10;;;12.84;100.00
64632;BME280;58358;50.936;0.246;2023-08-06T09:32:47;101050.36;;;13.14;100.00
64632;BME280;58358;50.936;0.246;2023-08-06T09:35:15;101056.56;;;12.54;100.00
64632;BME280;58358;50.936;0.246;2023-08-06T09:37:38;101054.30;;;13.59;100.00
64632;BME280;58358;50.936;0.246;2023-08-06T09:40:19;101056.61;;;13.72;100.00
64632;BME280;58358;50.936;0.246;2023-08-06T09:42:29;101063.61;;;13.87;100.00
64632;BME280;58358;50.936;0.246;2023-08-06T09:45:05;101063.26;;;14.48;97.79
64632;BME280;58358;50.936;0.246;2023-08-06T09:47:20;101064.14;;;13.60;100.00
64632;BME280;58358;50.936;0.246;2023-08-06T09:49:46;101070.00;;;14.06;100.00
64632;BME280;58358;50.936;0.246;2023-08-06T09:52:13;101071.95;;;13.95;89.89
64632;BME280;58358;50.936;0.246;2023-08-06T09:54:38;101069.29;;;13.51;93.50
64632;BME280;58358;50.936;0.246;2023-08-06T09:57:03;101065.08;;;14.56;90.83
64632;BME280;58358;50.936;0.246;2023-08-06T09:59:29;101064.72;;;13.88;93.53
64632;BME280;58358;50.936;0.246;2023-08-06T10:01:54;101064.43;;;14.40;89.99
64632;BME280;58358;50.936;0.246;2023-08-06T10:04:20;101074.00;;;14.20;90.92
64632;BME280;58358;50.936;0.246;2023-08-06T10:06:47;101078.91;;;13.36;94.95
64632;BME280;58358;50.936;0.246;2023-08-06T10:09:11;101075.63;;;13.84;93.12
64632;BME280;58358;50.936;0.246;2023-08-06T10:11:38;101077.37;;;14.15;89.66
64632;BME280;58358;50.936;0.246;2023-08-06T10:14:08;101075.53;;;15.12;82.54
64632;BME280;58358;50.936;0.246;2023-08-06T10:16:28;101072.04;;;14.72;85.74
64632;BME280;58358;50.936;0.246;2023-08-06T10:18:54;101083.56;;;14.81;87.33
64632;BME280;58358;50.936;0.246;2023-08-06T10:21:19;101076.23;;;14.51;84.68
64632;BME280;58358;50.936;0.246;2023-08-06T10:23:44;101092.92;;;14.62;84.67
64632;BME280;58358;50.936;0.246;2023-08-06T10:26:10;101079.17;;;15.03;84.23
64632;BME280;58358;50.936;0.246;2023-08-06T10:28:37;101083.48;;;15.70;82.04
64632;BME280;58358;50.936;0.246;2023-08-06T10:31:01;101079.22;;;16.24;77.18
64632;BME280;58358;50.936;0.246;2023-08-06T10:36:00;101082.51;;;15.50;80.34
64632;BME280;58358;50.936;0.246;2023-08-06T10:38:19;101088.50;;;15.75;77.15
64632;BME280;58358;50.936;0.246;2023-08-06T10:40:50;101086.08;;;16.17;77.78
64632;BME280;58358;50.936;0.246;2023-08-06T10:45:35;101087.61;;;14.67;79.77
64632;BME280;58358;50.936;0.246;2023-08-06T10:48:00;101093.97;;;15.26;80.16
64632;BME280;58358;50.936;0.246;2023-08-06T10:50:26;101090.56;;;14.82;84.67
64632;BME280;58358;50.936;0.246;2023-08-06T10:52:52;101092.13;;;15.41;86.34
64632;BME280;58358;50.936;0.246;2023-08-06T10:55:23;101094.64;;;14.90;79.91
64632;BME280;58358;50.936;0.246;2023-08-06T10:57:43;101095.62;;;15.36;80.59
64632;BME280;58358;50.936;0.246;2023-08-06T11:00:09;101094.93;;;15.35;80.36
64632;BME280;58358;50.936;0.246;2023-08-06T11:02:35;101089.99;;;15.11;78.32
64632;BME280;58358;50.936;0.246;2023-08-06T11:05:05;101095.50;;;15.62;77.51
64632;BME280;58358;50.936;0.246;2023-08-06T11:07:25;101096.80;;;16.02;75.91
64632;BME280;58358;50.936;0.246;2023-08-06T11:09:50;101100.00;;;15.54;74.67
64632;BME280;58358;50.936;0.246;2023-08-06T11:12:18;101093.63;;;15.29;80.04
64632;BME280;58358;50.936;0.246;2023-08-06T11:14:41;101098.22;;;16.40;72.18
64632;BME280;58358;50.936;0.246;2023-08-06T11:17:07;101101.01;;;15.83;75.31
64632;BME280;58358;50.936;0.246;2023-08-06T11:19:33;101100.29;;;16.08;71.28
64632;BME280;58358;50.936;0.246;2023-08-06T11:21:58;101092.30;;;16.36;71.51
64632;BME280;58358;50.936;0.246;2023-08-06T11:24:24;101097.36;;;14.40;73.06
64632;BME280;58358;50.936;0.246;2023-08-06T11:26:49;101095.95;;;14.65;78.81
64632;BME280;58358;50.936;0.246;2023-08-06T11:29:15;101091.33;;;15.47;73.28
64632;BME280;58358;50.936;0.246;2023-08-06T11:31:41;101105.63;;;15.88;75.85
64632;BME280;58358;50.936;0.246;2023-08-06T11:34:06;101093.76;;;14.56;73.62
64632;BME280;58358;50.936;0.246;2023-08-06T11:36:33;101094.72;;;14.63;76.29
64632;BME280;58358;50.936;0.246;2023-08-06T11:38:57;101093.45;;;14.94;77.07
64632;BME280;58358;50.936;0.246;2023-08-06T11:41:23;101099.77;;;15.59;73.26
64632;BME280;58358;50.936;0.246;2023-08-06T11:43:49;101089.52;;;15.34;72.48
64632;BME280;58358;50.936;0.246;2023-08-06T11:46:14;101085.98;;;16.29;67.52
64632;BME280;58358;50.936;0.246;2023-08-06T11:51:11;101076.30;;;16.12;66.44
64632;BME280;58358;50.936;0.246;2023-08-06T11:53:31;101089.65;;;15.25;70.31
64632;BME280;58358;50.936;0.246;2023-08-06T11:55:56;101089.00;;;15.87;71.44
64632;BME280;58358;50.936;0.246;2023-08-06T11:58:22;101098.28;;;16.80;66.88
64632;BME280;58358;50.936;0.246;2023-08-06T12:00:49;101090.47;;;15.41;69.89
64632;BME280;58358;50.936;0.246;2023-08-06T12:03:14;101095.84;;;16.26;69.35
64632;BME280;58358;50.936;0.246;2023-08-06T12:05:39;101098.23;;;16.28;69.68
64632;BME280;58358;50.936;0.246;2023-08-06T12:08:04;101092.27;;;16.10;67.30
64632;BME280;58358;50.936;0.246;2023-08-06T12:10:31;101096.22;;;15.45;70.58
64632;BME280;58358;50.936;0.246;2023-08-06T12:12:56;101095.05;;;15.96;64.91
64632;BME280;58358;50.936;0.246;2023-08-06T12:15:22;101092.23;;;16.09;64.38
64632;BME280;58358;50.936;0.246;2023-08-06T12:17:47;101088.38;;;16.51;62.66
64632;BME280;58358;50.936;0.246;2023-08-06T12:20:13;101090.44;;;15.84;63.13
64632;BME280;58358;50.936;0.246;2023-08-06T12:22:38;101094.43;;;16.22;65.11
64632;BME280;58358;50.936;0.246;2023-08-06T12:25:06;101087.31;;;17.11;57.96
64632;BME280;58358;50.936;0.246;2023-08-06T12:27:29;101098.76;;;16.50;59.84
64632;BME280;58358;50.936;0.246;2023-08-06T12:29:55;101101.52;;;16.80;59.92
64632;BME280;58358;50.936;0.246;2023-08-06T12:32:21;101096.55;;;16.96;63.34
64632;BME280;58358;50.936;0.246;2023-08-06T12:34:46;101096.43;;;16.40;63.88
64632;BME280;58358;50.936;0.246;2023-08-06T12:37:12;101099.50;;;15.93;62.68
64632;BME280;58358;50.936;0.246;2023-08-06T12:39:38;101105.59;;;17.14;60.56
64632;BME280;58358;50.936;0.246;2023-08-06T12:42:05;101109.95;;;16.27;62.27
64632;BME280;58358;50.936;0.246;2023-08-06T12:44:29;101116.37;;;16.25;61.29
64632;BME280;58358;50.936;0.246;2023-08-06T12:46:54;101111.84;;;17.13;60.07